createdAt,value
2023-02-17T00:03:47.153Z,90.66
2023-02-17T00:08:47.032Z,91.48
2023-02-17T00:13:46.950Z,90.62
2023-02-17T00:18:46.882Z,90.62
2023-02-17T00:23:46.850Z,90.62
2023-02-17T00:28:46.774Z,90.92
2023-02-17T00:33:46.729Z,90.58
2023-02-17T00:38:55.596Z,90.68
2023-02-17T00:43:46.650Z,91.03
2023-02-17T00:48:46.720Z,90.88
2023-02-17T00:53:46.673Z,90.37
2023-02-17T00:58:46.512Z,90.06
2023-02-17T01:03:46.495Z,89.82
2023-02-17T01:08:46.372Z,90.02
2023-02-17T01:13:46.310Z,90.99
2023-02-17T01:18:46.278Z,90.88
2023-02-17T01:23:46.231Z,90.64
2023-02-17T01:28:46.144Z,90.53
2023-02-17T01:33:46.074Z,91.29
2023-02-17T01:38:46.098Z,90.68
2023-02-17T01:43:46.017Z,90.64
2023-02-17T01:48:45.987Z,91.15
2023-02-17T01:53:45.990Z,91.39
2023-02-17T01:58:45.851Z,91.05
2023-02-17T02:03:45.778Z,91.19
2023-02-17T02:08:52.719Z,91.39
2023-02-17T02:13:45.633Z,90.99
2023-02-17T02:18:45.591Z,91.29
2023-02-17T02:23:45.576Z,90.74
2023-02-17T02:28:45.459Z,91.19
2023-02-17T02:33:45.443Z,90.84
2023-02-17T02:38:45.388Z,91.19
2023-02-17T02:43:45.286Z,90.49
2023-02-17T02:48:45.296Z,89.61
2023-02-17T02:53:45.224Z,90.12
2023-02-17T02:58:45.383Z,89.67
2023-02-17T03:03:45.140Z,89.26
2023-02-17T03:08:45.191Z,89.37
2023-02-17T03:13:45.107Z,89.06
2023-02-17T03:18:45.010Z,88.65
2023-02-17T03:23:44.956Z,88.96
2023-02-17T03:28:45.047Z,88.76
2023-02-17T03:33:44.802Z,89.51
2023-02-17T03:38:44.712Z,88.65
2023-02-17T03:43:44.657Z,88.14
2023-02-17T03:48:44.628Z,87.94
2023-02-17T03:53:44.636Z,88.24
2023-02-17T03:58:44.477Z,88.04
2023-02-17T04:03:44.549Z,87.84
2023-02-17T04:08:44.433Z,87.70
2023-02-17T04:13:44.377Z,87.08
2023-02-17T04:18:44.344Z,87.29
2023-02-17T04:23:44.262Z,86.47
2023-02-17T04:28:44.205Z,86.67
2023-02-17T04:33:44.351Z,86.47
2023-02-17T04:38:44.061Z,86.67
2023-02-17T04:43:44.068Z,86.57
2023-02-17T04:48:43.965Z,86.36
2023-02-17T04:53:43.856Z,86.47
2023-02-17T04:58:51.935Z,86.98
2023-02-17T05:03:43.825Z,86.26
2023-02-17T05:08:43.759Z,86.47
2023-02-17T05:13:43.667Z,86.57
2023-02-17T05:18:43.733Z,86.82
2023-02-17T05:23:43.633Z,86.88
2023-02-17T05:28:43.524Z,85.96
2023-02-17T05:33:43.465Z,86.57
2023-02-17T05:38:43.430Z,86.16
2023-02-17T05:43:43.349Z,86.26
2023-02-17T05:48:43.261Z,86.02
2023-02-17T05:53:43.262Z,86.36
2023-02-17T05:58:46.566Z,85.96
2023-02-17T06:03:44.170Z,86.06
2023-02-17T06:08:43.100Z,87.02
2023-02-17T06:13:43.095Z,86.88
2023-02-17T06:18:42.982Z,86.36
2023-02-17T06:23:42.924Z,86.77
2023-02-17T06:28:42.956Z,86.33
2023-02-17T06:33:42.903Z,86.12
2023-02-17T06:38:42.850Z,86.12
2023-02-17T06:43:42.886Z,85.82
2023-02-17T06:48:42.697Z,86.53
2023-02-17T06:53:42.673Z,86.77
2023-02-17T06:58:42.589Z,88.20
2023-02-17T07:03:51.485Z,86.90
2023-02-17T07:08:42.503Z,89.32
2023-02-17T07:13:42.369Z,89.94
2023-02-17T07:18:42.283Z,90.35
2023-02-17T07:23:42.270Z,89.94
2023-02-17T07:28:43.303Z,90.66
2023-02-17T07:33:42.227Z,90.45
2023-02-17T07:38:42.128Z,90.75
2023-02-17T07:43:42.069Z,89.94
2023-02-17T07:48:41.976Z,90.25
2023-02-17T07:53:41.905Z,89.59
2023-02-17T07:58:41.863Z,89.18
2023-02-17T08:03:41.815Z,88.98
2023-02-17T08:08:41.760Z,89.18
2023-02-17T08:13:41.714Z,88.73
2023-02-17T08:18:41.617Z,88.53
2023-02-17T08:23:41.672Z,87.82
2023-02-17T08:28:41.535Z,87.16
2023-02-17T08:33:41.562Z,87.16
2023-02-17T08:38:41.471Z,87.30
2023-02-17T08:43:42.488Z,86.76
2023-02-17T08:48:41.340Z,86.65
2023-02-17T08:53:41.402Z,86.51
2023-02-17T08:58:41.197Z,86.21
2023-02-17T09:03:41.167Z,85.86
2023-02-17T09:08:41.338Z,85.14
2023-02-17T09:13:41.179Z,84.70
2023-02-17T09:18:41.230Z,84.05
2023-02-17T09:23:43.022Z,84.15
2023-02-17T09:28:41.010Z,83.13
2023-02-17T09:33:40.973Z,83.84
2023-02-17T09:38:40.883Z,83.56
2023-02-17T09:43:40.731Z,82.68
2023-02-17T09:48:40.665Z,82.20
2023-02-17T09:53:40.705Z,81.84
2023-02-17T09:58:40.600Z,81.79
2023-02-17T10:03:40.545Z,81.56
2023-02-17T10:08:40.568Z,81.59
2023-02-17T10:13:40.550Z,81.90
2023-02-17T10:18:40.583Z,81.90
2023-02-17T10:23:40.377Z,82.20
2023-02-17T10:28:40.346Z,80.91
2023-02-17T10:33:40.381Z,80.84
2023-02-17T10:38:40.154Z,80.74
2023-02-17T10:43:40.125Z,80.94
2023-02-17T10:48:40.022Z,80.71
2023-02-17T10:53:40.044Z,79.96
2023-02-17T10:58:39.978Z,80.10
2023-02-17T11:03:39.873Z,80.10
2023-02-17T11:08:39.926Z,80.16
2023-02-17T11:13:39.778Z,79.31
2023-02-17T11:18:39.737Z,79.92
2023-02-17T11:23:39.743Z,79.11
2023-02-17T11:28:39.583Z,78.94
2023-02-17T11:33:39.558Z,78.74
2023-02-17T11:38:39.670Z,78.40
2023-02-17T11:43:39.762Z,77.25
2023-02-17T11:48:39.455Z,78.42
2023-02-17T11:53:39.419Z,76.03
2023-02-17T11:58:39.331Z,76.40
2023-02-17T12:03:39.371Z,76.60
2023-02-17T12:08:39.295Z,75.49
2023-02-17T12:13:40.176Z,76.29
2023-02-17T12:18:39.019Z,75.49
2023-02-17T12:23:39.000Z,75.73
2023-02-17T12:28:38.918Z,76.84
2023-02-17T12:33:38.856Z,75.99
2023-02-17T12:38:38.851Z,75.35
2023-02-17T12:43:38.848Z,75.65
2023-02-17T12:48:38.838Z,75.89
2023-02-17T12:53:38.723Z,75.99
2023-02-17T12:58:38.666Z,76.80
2023-02-17T13:08:19.592Z,76.60
2023-02-17T13:13:21.292Z,77.86
2023-02-17T13:18:19.426Z,76.29
2023-02-17T13:23:19.459Z,76.80
2023-02-17T13:28:19.405Z,76.87
2023-02-17T13:33:19.308Z,76.80
2023-02-17T13:38:19.234Z,76.06
2023-02-17T13:43:19.228Z,76.29
2023-02-17T13:48:19.156Z,76.26
2023-02-17T13:53:19.139Z,76.36
2023-02-17T13:58:19.013Z,76.09
2023-02-17T14:03:19.056Z,75.79
2023-02-17T14:08:18.942Z,76.29
2023-02-17T14:13:18.855Z,76.29
2023-02-17T14:18:18.784Z,76.98
2023-02-17T14:23:18.742Z,76.33
2023-02-17T14:28:18.673Z,76.64
2023-02-17T14:33:18.681Z,76.98
2023-02-17T14:38:18.628Z,76.91
2023-02-17T14:43:18.608Z,76.67
2023-02-17T14:48:18.566Z,76.78
2023-02-17T14:53:18.463Z,76.91
2023-02-17T14:58:18.415Z,77.32
2023-02-17T15:03:18.330Z,78.67
2023-02-17T15:08:19.316Z,80.60
2023-02-17T15:13:18.321Z,82.64
2023-02-17T15:18:18.248Z,83.01
2023-02-17T15:23:19.161Z,83.97
2023-02-17T15:28:18.161Z,83.60
2023-02-17T15:33:17.962Z,82.85
2023-02-17T15:38:17.960Z,82.89
2023-02-17T15:43:17.948Z,83.70
2023-02-17T15:48:17.956Z,84.97
2023-02-17T15:53:24.741Z,85.27
2023-02-17T15:58:17.759Z,86.63
2023-02-17T16:03:17.739Z,87.45
2023-02-17T16:08:17.604Z,87.49
2023-02-17T16:13:17.541Z,87.08
2023-02-17T16:18:17.468Z,86.43
2023-02-17T16:23:17.439Z,85.31
2023-02-17T16:28:17.401Z,85.05
2023-02-17T16:33:17.348Z,84.25
2023-02-17T16:38:17.374Z,84.23
2023-02-17T16:43:18.270Z,83.44
2023-02-17T16:48:17.164Z,83.17
2023-02-17T16:53:17.137Z,83.48
2023-02-17T16:58:17.035Z,83.17
2023-02-17T17:03:17.023Z,83.37
2023-02-17T17:08:17.024Z,82.42
2023-02-17T17:13:17.961Z,82.56
2023-02-17T17:18:17.020Z,82.97
2023-02-17T17:23:16.948Z,83.07
2023-02-17T17:28:16.912Z,82.66
2023-02-17T17:33:16.704Z,82.05
2023-02-17T17:38:16.626Z,81.95
2023-02-17T17:43:16.547Z,81.74
2023-02-17T17:48:16.570Z,82.56
2023-02-17T17:53:16.521Z,82.15
2023-02-17T17:58:16.401Z,82.12
2023-02-17T18:03:16.342Z,82.46
2023-02-17T18:08:16.294Z,82.87
2023-02-17T18:13:16.244Z,82.87
2023-02-17T18:18:16.277Z,82.97
2023-02-17T18:23:16.162Z,82.26
2023-02-17T18:28:18.238Z,83.31
2023-02-17T18:33:16.071Z,82.26
2023-02-17T18:38:16.113Z,82.35
2023-02-17T18:43:17.115Z,83.51
2023-02-17T18:48:15.852Z,83.07
2023-02-17T18:53:15.818Z,83.68
2023-02-17T18:58:15.879Z,83.58
2023-02-17T19:03:15.694Z,83.17
2023-02-17T19:08:24.476Z,82.82
2023-02-17T19:13:15.591Z,83.17
2023-02-17T19:18:15.579Z,82.97
2023-02-17T19:23:16.498Z,83.72
2023-02-17T19:28:15.484Z,84.12
2023-02-17T19:33:15.346Z,83.21
2023-02-17T19:38:15.294Z,83.92
2023-02-17T19:43:15.240Z,84.12
2023-02-17T19:48:15.178Z,83.82
2023-02-17T19:53:15.149Z,83.58
2023-02-17T19:58:15.092Z,83.78
2023-02-17T20:03:15.018Z,83.48
2023-02-17T20:08:15.975Z,84.33
2023-02-17T20:13:14.910Z,84.43
2023-02-17T20:18:14.959Z,84.23
2023-02-17T20:23:15.035Z,84.74
2023-02-17T20:28:15.015Z,84.64
2023-02-17T20:33:14.764Z,84.06
2023-02-17T20:38:14.731Z,84.03
2023-02-17T20:43:14.826Z,84.33
2023-02-17T20:48:15.622Z,83.92
2023-02-17T20:53:14.703Z,84.33
2023-02-17T20:58:14.592Z,83.82
2023-02-17T21:03:14.506Z,83.82
2023-02-17T21:08:14.297Z,84.33
2023-02-17T21:13:14.446Z,84.12
2023-02-17T21:18:14.375Z,83.72
2023-02-17T21:23:17.691Z,83.92
2023-02-17T21:28:16.624Z,84.64
2023-02-17T21:33:14.239Z,84.58
2023-02-17T21:38:13.975Z,84.37
2023-02-17T21:43:13.908Z,84.98
2023-02-17T21:48:13.898Z,84.58
2023-02-17T21:53:13.837Z,85.08
2023-02-17T21:58:13.840Z,84.88
2023-02-17T22:03:13.804Z,85.22
2023-02-17T22:08:13.745Z,85.02
2023-02-17T22:13:13.630Z,84.78
2023-02-17T22:18:13.632Z,85.19
2023-02-17T22:23:13.672Z,84.88
2023-02-17T22:28:14.506Z,85.08
2023-02-17T22:33:13.419Z,84.64
2023-02-17T22:38:13.338Z,84.43
2023-02-17T22:43:13.407Z,84.58
2023-02-17T22:48:14.302Z,85.08
2023-02-17T22:53:13.206Z,85.28
2023-02-17T22:58:13.395Z,85.33
2023-02-17T23:03:13.173Z,85.08
2023-02-17T23:08:13.106Z,85.69
2023-02-17T23:13:12.983Z,85.49
2023-02-17T23:18:12.985Z,85.39
2023-02-17T23:23:12.906Z,85.94
2023-02-17T23:28:12.912Z,85.69
2023-02-17T23:33:12.715Z,85.90
2023-02-17T23:38:12.768Z,85.49
2023-02-17T23:43:12.644Z,86.76
2023-02-17T23:48:12.600Z,86.61
2023-02-17T23:53:12.540Z,85.80
2023-02-17T23:58:12.442Z,86.86
